• Join FlightAware (Why Join?)
  • Login
  • US Flag 
12:29AM EDT


 

Airport Tracker/Info


-or-


 

Live Flight TrackerFlight Track Log ✈ TAM3130 ✈ 24-Aug-2013 ✈ SBSP / CGH - SBVT / VIX

Flight Track Log - Related Links

Times and Time Zones

All times are in EDT time to prevent confusion due to time zone crossing. See the TAM3130 flight status page for this flight to view local times or setup timezone preferences in your user account.

Time Position Orientation Groundspeed Altitude Reporting Facility
EDT Latitude Longitude Course Direction KTS MPH feet Rate Location/Type
07:18AM -23.6240 -46.6600 112° Southeast  Level FlightAware
07:22AM -23.4988 -46.4083 62° Northeast  Level Estimated
07:23AM -23.4473 -46.3050 61° Northeast  Level Estimated
07:24AM -23.3957 -46.2018 61° Northeast  Level Estimated
07:24AM -23.6230 -46.6600 61° Northeast  Level FlightAware
07:26AM -23.6210 -46.6610 360° North 660 Level FlightAware
07:27AM -23.6200 -46.6610 360° North 1,080 Level FlightAware
07:29AM -23.6430 -46.6450 147° Southeast 161 185 3,300 2,460 Climbing FlightAware
07:29AM -23.6470 -46.6400 131° Southeast 161 185 3,600 1,980 Climbing FlightAware
07:29AM -23.6490 -46.6380 138° Southeast 162 186 3,700 1,500 Climbing FlightAware
07:29AM -23.6500 -46.6310 99° East 168 193 3,900 1,200 Climbing FlightAware
07:29AM -23.6500 -46.6290 90° East 173 199 3,900 1,200 Level FlightAware
07:29AM -23.6510 -46.6090 93° East 203 234 4,400 1,560 Climbing FlightAware
07:30AM -23.6580 -46.5890 111° Southeast 212 244 5,000 1,620 Climbing FlightAware
07:30AM -23.6540 -46.5570 82° East 243 280 5,700 1,500 Climbing FlightAware
07:30AM -23.6490 -46.5310 78° East 271 312 6,200 2,280 Climbing FlightAware
07:31AM -23.6450 -46.5010 82° East 282 325 7,300 3,000 Climbing FlightAware
07:31AM -23.6420 -46.4780 82° East 288 331 8,100 3,120 Climbing FlightAware
07:31AM -23.6390 -46.4490 84° East 291 335 9,200 3,600 Climbing FlightAware
07:31AM -23.6370 -46.4370 80° East 283 326 9,800 4,500 Climbing FlightAware
07:32AM -23.6310 -46.4220 66° East 276 318 10,700 4,080 Climbing FlightAware
07:32AM -23.6140 -46.3820 65° Northeast 245 282 13,000 3,000 Climbing FlightAware
07:33AM -23.5960 -46.3380 66° East 263 303 14,300 2,340 Climbing FlightAware
07:33AM -23.5800 -46.2990 66° East 265 305 15,700 2,340 Climbing FlightAware
07:34AM -23.5610 -46.2550 65° Northeast 268 308 17,000 1,920 Climbing FlightAware
07:35AM -23.5420 -46.2090 66° East 286 329 18,100 1,560 Climbing FlightAware
07:35AM -23.5220 -46.1610 66° East 310 357 18,900 1,020 Climbing FlightAware
07:36AM -23.5020 -46.1130 66° East 341 392 19,300 780 Climbing FlightAware
07:36AM -23.4770 -46.0540 65° Northeast 375 432 19,800 720 Climbing FlightAware
07:37AM -23.4500 -45.9910 65° Northeast 405 466 20,200 1,020 Climbing FlightAware
07:38AM -23.4200 -45.9200 65° Northeast 417 480 21,200 1,440 Climbing FlightAware
07:38AM -23.3800 -45.8240 66° East 428 493 22,400 1,440 Climbing FlightAware
07:39AM -23.3530 -45.7600 65° Northeast 439 505 23,200 1,260 Climbing FlightAware
07:40AM -23.3180 -45.6760 66° East 452 520 24,000 1,440 Climbing FlightAware
07:40AM -23.2920 -45.6170 64° Northeast 453 521 24,900 1,500 Climbing FlightAware
07:41AM -23.2610 -45.5420 66° East 460 529 25,700 1,260 Climbing FlightAware
07:41AM -23.2320 -45.4750 65° Northeast 465 535 26,500 1,500 Climbing FlightAware
07:42AM -23.1880 -45.3720 65° Northeast 473 544 27,500 1,320 Climbing FlightAware
07:43AM -23.1510 -45.2850 65° Northeast 483 556 28,200 1,020 Climbing FlightAware
07:43AM -23.1220 -45.2180 65° Northeast 489 563 28,700 960 Climbing FlightAware
07:44AM -23.0930 -45.1360 69° East 499 574 29,300 1,080 Climbing FlightAware
07:44AM -23.0720 -45.0530 75° East 501 577 30,000 1,080 Climbing FlightAware
07:45AM -23.0530 -44.9640 77° East 507 583 30,600 1,200 Climbing FlightAware
07:46AM -23.0320 -44.8650 77° East 507 583 31,500 1,260 Climbing FlightAware
07:46AM -23.0120 -44.7770 76° East 508 585 32,200 1,140 Climbing FlightAware
07:47AM -22.9940 -44.6940 77° East 508 585 32,900 1,260 Climbing FlightAware
07:47AM -22.9770 -44.6170 77° East 508 585 33,600 720 Climbing FlightAware
07:48AM -22.9580 -44.5300 77° East 519 597 33,700 300 Climbing FlightAware
07:48AM -22.9330 -44.4410 73° East 524 603 34,000 780 Climbing FlightAware
07:49AM -22.8810 -44.3530 57° Northeast 525 604 34,700 840 Climbing FlightAware
07:50AM -22.8410 -44.2870 57° Northeast 524 603 35,000 240 Climbing FlightAware
07:50AM -22.7880 -44.1990 57° Northeast 519 597 35,000  Level FlightAware
07:51AM -22.7470 -44.1300 57° Northeast 521 600 35,000  Level FlightAware
07:51AM -22.7020 -44.0560 57° Northeast 522 601 35,000  Level FlightAware
07:52AM -22.6550 -43.9780 57° Northeast 520 598 35,000  Level FlightAware
07:53AM -22.6040 -43.8920 57° Northeast 518 596 35,000  Level FlightAware
07:53AM -22.5640 -43.8270 56° Northeast 519 597 35,000  Level FlightAware
07:54AM -22.5120 -43.7410 57° Northeast 521 600 35,000  Level FlightAware
07:54AM -22.4650 -43.6630 57° Northeast 521 600 35,000  Level FlightAware
07:55AM -22.4160 -43.5830 56° Northeast 520 598 35,000  Level FlightAware
07:55AM -22.3740 -43.5130 57° Northeast 520 598 35,000  Level FlightAware
07:56AM -22.3490 -43.4720 57° Northeast 520 598 35,000  Level FlightAware
07:57AM -22.2960 -43.3850 57° Northeast 519 597 35,000  Level FlightAware
07:57AM -22.2490 -43.3090 56° Northeast 518 596 35,000  Level FlightAware
07:58AM -22.1850 -43.2040 57° Northeast 518 596 35,000  Level FlightAware
07:58AM -22.1420 -43.1340 56° Northeast 518 596 35,000  Level FlightAware
07:59AM -22.0940 -43.0550 57° Northeast 518 596 35,000  Level FlightAware
08:00AM -22.0470 -42.9790 56° Northeast 517 595 35,000  Level FlightAware
08:00AM -22.0050 -42.9100 57° Northeast 517 595 35,000  Level FlightAware
08:01AM -21.9560 -42.8310 56° Northeast 521 600 35,000  Level FlightAware
08:01AM -21.9080 -42.7540 56° Northeast 520 598 35,000  Level FlightAware
08:02AM -21.8610 -42.6770 57° Northeast 519 597 35,000  Level FlightAware
08:02AM -21.8180 -42.6070 57° Northeast 522 601 35,000  Level FlightAware
08:03AM -21.7670 -42.5250 56° Northeast 522 601 35,000  Level FlightAware
08:04AM -21.7190 -42.4480 56° Northeast 520 598 35,000  Level FlightAware
08:04AM -21.6710 -42.3710 56° Northeast 521 600 35,000  Level FlightAware
08:05AM -21.6280 -42.3010 57° Northeast 521 600 35,000  Level FlightAware
08:05AM -21.5800 -42.2250 56° Northeast 517 595 35,000  Level FlightAware
08:06AM -21.5390 -42.1580 57° Northeast 516 594 35,000  Level FlightAware
08:06AM -21.5120 -42.1150 56° Northeast 517 595 35,000  Level FlightAware
08:07AM -21.4670 -42.0430 56° Northeast 514 592 35,000  Level FlightAware
08:08AM -21.3830 -41.9090 56° Northeast 515 593 35,000  Level FlightAware
08:08AM -21.3410 -41.8410 56° Northeast 516 594 35,000 -600 Level FlightAware
08:09AM -21.2900 -41.7610 56° Northeast 516 594 34,300 -1,860 Descending FlightAware
08:10AM -21.2500 -41.6980 56° Northeast 515 593 32,900 -2,700 Descending FlightAware
08:10AM -21.1980 -41.6160 56° Northeast 510 587 31,000 -3,420 Descending FlightAware
08:11AM -21.1580 -41.5510 57° Northeast 524 603 28,600 -4,080 Descending FlightAware
08:11AM -21.1100 -41.4750 56° Northeast 525 604 26,100 -1,980 Descending FlightAware
08:12AM -21.0660 -41.4080 55° Northeast 525 604 26,100  Level FlightAware
08:13AM -21.0230 -41.3430 55° Northeast 525 604 26,100 -1,800 Level FlightAware
08:13AM -21.0320 -41.3530 226° Southwest 956 1100 23,900 -3,240 Descending FlightAware
08:14AM -21.0040 -41.3080 56° Northeast 484 557 22,700 -3,300 Descending FlightAware
08:14AM -20.9540 -41.2290 56° Northeast 471 542 20,800 -2,820 Descending FlightAware
08:15AM -20.8950 -41.1370 56° Northeast 440 506 19,300 -1,680 Descending FlightAware
08:16AM -20.8510 -41.0680 56° Northeast 401 461 18,600 -1,080 Descending FlightAware
08:16AM -20.8200 -41.0180 56° Northeast 375 432 18,000 -1,440 Descending FlightAware
08:17AM -20.7870 -40.9670 55° Northeast 359 413 17,100 -1,740 Descending FlightAware
08:17AM -20.7510 -40.9100 56° Northeast 346 398 15,900 -1,320 Descending FlightAware
08:18AM -20.7110 -40.8490 55° Northeast 343 395 15,200 -1,200 Descending FlightAware
08:19AM -20.6820 -40.8060 54° Northeast 309 356 14,300 -1,440 Descending FlightAware
08:19AM -20.6530 -40.7710 48° Northeast 296 341 13,700 -1,140 Descending FlightAware
08:20AM -20.6410 -40.7500 59° Northeast 291 335 13,400 -900 Descending FlightAware
08:20AM -20.6140 -40.7000 60° Northeast 268 308 12,900 -720 Descending FlightAware
08:21AM -20.5940 -40.6590 62° Northeast 250 288 12,500 -720 Descending FlightAware
08:21AM -20.5770 -40.6260 61° Northeast 238 274 12,100 -600 Descending FlightAware
08:22AM -20.5560 -40.5850 61° Northeast 211 243 11,900 -660 Descending FlightAware
08:23AM -20.5360 -40.5460 61° Northeast 189 217 11,300 -1,020 Descending FlightAware
08:23AM -20.5230 -40.5200 62° Northeast 189 217 10,700 -1,620 Descending FlightAware
08:24AM -20.5100 -40.4950 61° Northeast 189 217 9,800 -2,280 Descending FlightAware
08:24AM -20.5070 -40.4890 62° Northeast 191 220 9,500 -2,280 Descending FlightAware
08:24AM -20.4970 -40.4690 62° Northeast 198 228 8,600 -2,100 Descending FlightAware
08:25AM -20.4860 -40.4480 61° Northeast 200 230 7,800 -1,920 Descending FlightAware
08:25AM -20.4790 -40.4350 60° Northeast 201 231 7,300 -1,680 Descending FlightAware
08:25AM -20.4690 -40.4190 56° Northeast 197 227 6,700 -1,920 Descending FlightAware
08:25AM -20.4590 -40.4130 29° Northeast 198 228 6,300 -2,280 Descending FlightAware
08:25AM -20.4520 -40.4120 North 198 228 6,100 -1,320 Descending FlightAware
08:26AM -20.4340 -40.4230 330° Northwest 203 234 5,600 -1,200 Descending FlightAware
08:26AM -20.4290 -40.4380 290° West 201 231 5,300 -1,080 Descending FlightAware
08:27AM -20.4380 -40.4580 244° Southwest 188 216 4,900 -1,140 Descending FlightAware
08:27AM -20.4510 -40.4640 203° Southwest 178 205 4,600 -900 Descending FlightAware
08:27AM -20.4530 -40.4640 180° South 176 203 4,600 -1,080 Level FlightAware
08:27AM -20.4690 -40.4580 161° South 170 196 4,100 -1,380 Descending FlightAware
08:27AM -20.4750 -40.4500 129° Southeast 167 192 3,900 -1,140 Descending FlightAware
08:28AM -20.4770 -40.4430 107° East 161 185 3,800 -420 Descending FlightAware
08:28AM -20.4770 -40.4370 90° East 151 174 3,800  Level FlightAware
08:28AM -20.4710 -40.4220 67° East 141 162 3,800  Level FlightAware
08:28AM -20.4650 -40.4170 38° Northeast 139 160 3,800  Level FlightAware
08:29AM -20.4620 -40.4160 17° North 140 161 3,800 -240 Level FlightAware
08:29AM -20.4480 -40.4090 25° Northeast 147 169 3,700 -300 Descending FlightAware
08:29AM -20.4390 -40.4050 23° Northeast 140 161 3,600 -180 Descending FlightAware
08:30AM -20.4250 -40.3970 28° Northeast 136 157 3,600  Level FlightAware
08:30AM -20.4220 -40.3950 32° Northeast 134 154 3,600  Level FlightAware
08:30AM -20.4100 -40.3880 29° Northeast 135 155 3,600 -300 Level FlightAware
08:31AM -20.3990 -40.3800 34° Northeast 135 155 3,400 -600 Descending FlightAware
08:31AM -20.3920 -40.3750 34° Northeast 130 150 3,200 -780 Descending FlightAware
08:31AM -20.3820 -40.3680 33° Northeast 127 146 2,900 -780 Descending FlightAware
08:31AM -20.3750 -40.3640 28° Northeast 128 147 2,700 -660 Descending FlightAware
08:32AM -20.3640 -40.3570 31° Northeast 128 147 2,500 -660 Descending FlightAware
08:32AM -20.3580 -40.3530 32° Northeast 128 147 2,300 -960 Descending FlightAware
08:32AM -20.3440 -40.3440 31° Northeast 128 147 1,900 -1,080 Descending FlightAware
08:33AM -20.3270 -40.3330 31° Northeast 133 153 1,500 -960 Descending FlightAware
08:33AM -20.3170 -40.3260 33° Northeast 132 152 1,200 -840 Descending FlightAware
08:33AM -20.3090 -40.3200 35° Northeast 129 148 1,000 -780 Descending FlightAware
08:34AM -20.2970 -40.3130 29° Northeast 127 146 700 -780 Descending FlightAware
08:34AM -20.2900 -40.3080 34° Northeast 127 146 500 -780 Descending FlightAware
08:35AM -20.2780 -40.3000 32° Northeast 126 145 200 -780 Descending FlightAware
08:35AM -20.2700 -40.2950 30° Northeast 127 146 -540 Descending FlightAware
08:35AM -20.2620 -40.2900 30° Northeast 130 150  Level FlightAware
08:35AM -20.2590 -40.2870 43° Northeast 121 139  Level FlightAware
08:36AM -20.2570 -40.2870 360° North 121 139  Level FlightAware
08:36AM -20.2570 -40.2880 270° West 121 139  Level FlightAware
08:37AM -20.2580 -40.2890 223° Southwest 121 139  Level FlightAware
08:37AM -20.2570 -40.2890 360° North 121 139  Level FlightAware
08:38AM -20.2610 -40.2760 108° East 121 139  Level FlightAware
08:38AM -20.2610 -40.2770 270° West 121 139  Level FlightAware
08:39AM -20.2570 -40.2890 290° West 121 139  Level FlightAware
08:39AM -20.2610 -40.2760 108° East 121 139  Level FlightAware
08:40AM -20.2610 -40.2770 270° West 121 139  Level FlightAware
08:40AM -20.2610 -40.2760 90° East 121 139  Level FlightAware
08:42AM -20.2570 -40.2890 287° West 121 139  Level FlightAware
08:43AM -20.2581 -40.2864 287° West  Level Estimated